createdAt,value
2023-02-19T00:01:25.889Z,93903.28
2023-02-19T00:04:07.649Z,93903.56
2023-02-19T00:06:34.695Z,93909.06
2023-02-19T00:09:01.854Z,93911.84
2023-02-19T00:11:31.145Z,93909.84
2023-02-19T00:13:59.350Z,93898.06
2023-02-19T00:16:32.065Z,93902.00
2023-02-19T00:19:01.227Z,93899.88
2023-02-19T00:21:28.039Z,93894.25
2023-02-19T00:23:57.252Z,93897.47
2023-02-19T00:26:24.238Z,93899.34
2023-02-19T00:28:52.397Z,93888.22
2023-02-19T00:31:22.096Z,93887.13
2023-02-19T00:33:51.802Z,93886.03
2023-02-19T00:36:18.898Z,93869.94
2023-02-19T00:38:46.221Z,93881.38
2023-02-19T00:41:20.188Z,93883.88
2023-02-19T00:43:49.048Z,93885.41
2023-02-19T00:46:21.876Z,93872.91
2023-02-19T00:48:48.722Z,93887.88
2023-02-19T00:51:16.105Z,93891.25
2023-02-19T00:53:43.091Z,93866.56
2023-02-19T00:56:10.117Z,93866.13
2023-02-19T00:58:37.237Z,93875.22
2023-02-19T01:01:05.603Z,93866.13
2023-02-19T01:03:33.445Z,93866.94
2023-02-19T01:06:00.532Z,93869.13
2023-02-19T01:08:27.969Z,93873.34
2023-02-19T01:10:54.793Z,93850.78
2023-02-19T01:13:21.540Z,93862.66
2023-02-19T01:15:48.299Z,93841.97
2023-02-19T01:18:15.140Z,93853.22
2023-02-19T01:20:43.674Z,93847.81
2023-02-19T01:23:12.052Z,93851.81
2023-02-19T01:25:42.601Z,93842.19
2023-02-19T01:28:10.715Z,93854.41
2023-02-19T01:30:39.390Z,93845.22
2023-02-19T01:33:07.513Z,93856.50
2023-02-19T01:35:34.967Z,93876.66
2023-02-19T01:38:01.701Z,93887.25
2023-02-19T01:40:28.614Z,93894.16
2023-02-19T01:42:55.389Z,93889.22
2023-02-19T01:45:22.252Z,93895.94
2023-02-19T01:47:55.363Z,93903.00
2023-02-19T01:50:23.057Z,93911.34
2023-02-19T01:52:49.723Z,93883.38
2023-02-19T01:55:17.993Z,93916.28
2023-02-19T01:57:47.105Z,93936.03
2023-02-19T02:00:17.596Z,93923.13
2023-02-19T02:02:49.826Z,93921.53
2023-02-19T02:06:06.172Z,93908.88
2023-02-19T02:09:00.173Z,93891.84
2023-02-19T02:11:27.718Z,93877.75
2023-02-19T02:13:54.655Z,93887.16
2023-02-19T02:16:34.195Z,93868.94
2023-02-19T02:19:06.898Z,93869.91
2023-02-19T02:21:49.751Z,93891.97
2023-02-19T02:24:34.738Z,93880.28
2023-02-19T02:27:04.696Z,93887.63
2023-02-19T02:30:09.627Z,93881.31
2023-02-19T02:33:18.153Z,93889.78
2023-02-19T02:35:49.371Z,93887.78
2023-02-19T02:38:18.759Z,93886.31
2023-02-19T02:40:45.759Z,93906.97
2023-02-19T02:43:13.933Z,93881.69
2023-02-19T02:45:41.196Z,93914.06
2023-02-19T02:48:33.704Z,93894.63
2023-02-19T02:51:19.917Z,93916.72
2023-02-19T02:54:19.049Z,93906.81
2023-02-19T02:56:47.085Z,93889.69
2023-02-19T02:59:22.108Z,93885.34
2023-02-19T03:02:12.703Z,93885.84
2023-02-19T03:04:59.481Z,93886.53
2023-02-19T03:07:29.942Z,93887.59
2023-02-19T03:09:58.639Z,93900.09
2023-02-19T03:12:44.466Z,93904.94
2023-02-19T03:15:31.860Z,93895.72
2023-02-19T03:18:22.854Z,93908.88
2023-02-19T03:20:52.328Z,93910.50
2023-02-19T03:23:21.279Z,93915.47
2023-02-19T03:26:03.433Z,93913.28
2023-02-19T03:28:59.691Z,93938.78
2023-02-19T03:31:27.873Z,93938.81
2023-02-19T03:34:01.483Z,93946.25
2023-02-19T03:36:37.733Z,93944.69
2023-02-19T03:39:07.342Z,93940.41
2023-02-19T03:41:41.274Z,93934.97
2023-02-19T03:44:18.215Z,93946.16
2023-02-19T03:46:58.739Z,93932.53
2023-02-19T03:49:29.621Z,93948.13
2023-02-19T03:52:05.603Z,93945.69
2023-02-19T03:54:38.347Z,93942.13
2023-02-19T03:57:07.661Z,93951.03
2023-02-19T03:59:47.253Z,93942.25
2023-02-19T04:02:18.406Z,93955.66
2023-02-19T04:04:56.940Z,93960.63
2023-02-19T04:07:24.138Z,93959.69
2023-02-19T04:09:52.515Z,93968.94
2023-02-19T04:12:21.299Z,93965.09
2023-02-19T04:15:01.659Z,93973.22
2023-02-19T04:17:37.133Z,93966.31
2023-02-19T04:20:05.659Z,93969.56
2023-02-19T04:22:32.634Z,93974.50
2023-02-19T04:24:59.437Z,93970.78
2023-02-19T04:27:26.259Z,93978.56
2023-02-19T04:29:53.171Z,93980.38
2023-02-19T04:32:19.887Z,93978.31
2023-02-19T04:34:46.632Z,93980.97
2023-02-19T04:37:13.613Z,93996.00
2023-02-19T04:39:40.363Z,93982.16
2023-02-19T04:42:07.135Z,93985.16
2023-02-19T04:44:34.625Z,93975.31
2023-02-19T04:47:01.634Z,93973.81
2023-02-19T04:49:28.429Z,93984.34
2023-02-19T04:51:55.302Z,93990.69
2023-02-19T04:54:22.048Z,93987.00
2023-02-19T04:56:50.752Z,93983.97
2023-02-19T04:59:17.793Z,93977.16
2023-02-19T05:01:44.628Z,93988.47
2023-02-19T05:04:11.587Z,93999.47
2023-02-19T05:06:38.393Z,93994.47
2023-02-19T05:09:05.161Z,93983.56
2023-02-19T05:11:32.052Z,93995.47
2023-02-19T05:13:58.805Z,93988.84
2023-02-19T05:16:25.558Z,93982.75
2023-02-19T05:18:52.437Z,93981.91
2023-02-19T05:21:19.217Z,93993.19
2023-02-19T05:23:45.994Z,93993.34
2023-02-19T05:26:18.955Z,93994.06
2023-02-19T05:28:46.856Z,93997.13
2023-02-19T05:31:14.885Z,93996.94
2023-02-19T05:33:43.155Z,93990.81
2023-02-19T05:36:14.085Z,93990.72
2023-02-19T05:38:41.188Z,94000.06
2023-02-19T05:41:20.508Z,93994.41
2023-02-19T05:43:48.462Z,94007.69
2023-02-19T05:46:17.725Z,94009.91
2023-02-19T05:48:44.592Z,94001.84
2023-02-19T05:51:16.490Z,94004.50
2023-02-19T05:53:45.296Z,94008.38
2023-02-19T05:56:24.284Z,94008.88
2023-02-19T05:58:51.233Z,94013.28
2023-02-19T06:01:19.427Z,94015.59
2023-02-19T06:03:46.285Z,94021.41
2023-02-19T06:06:17.895Z,94026.56
2023-02-19T06:08:44.819Z,94032.13
2023-02-19T06:11:11.941Z,94033.53
2023-02-19T06:13:38.886Z,94037.84
2023-02-19T06:16:07.181Z,94040.78
2023-02-19T06:18:34.290Z,94055.00
2023-02-19T06:21:05.666Z,94040.41
2023-02-19T06:23:32.921Z,94041.00
2023-02-19T06:26:11.725Z,94043.94
2023-02-19T06:28:39.300Z,94054.00
2023-02-19T06:31:07.675Z,94044.53
2023-02-19T06:33:35.420Z,94050.84
2023-02-19T06:36:03.854Z,94044.53
2023-02-19T06:38:31.296Z,94045.34
2023-02-19T06:41:02.793Z,94046.50
2023-02-19T06:43:30.173Z,94048.78
2023-02-19T06:46:01.054Z,94039.97
2023-02-19T06:48:29.672Z,94036.78
2023-02-19T06:50:56.879Z,94049.72
2023-02-19T06:53:23.753Z,94047.50
2023-02-19T06:56:08.072Z,94057.72
2023-02-19T06:58:35.131Z,94050.75
2023-02-19T07:01:02.032Z,94051.22
2023-02-19T07:03:28.828Z,94055.47
2023-02-19T07:05:55.600Z,94058.59
2023-02-19T07:08:22.456Z,94060.09
2023-02-19T07:10:56.943Z,94059.19
2023-02-19T07:13:25.068Z,94048.81
2023-02-19T07:15:52.256Z,94052.56
2023-02-19T07:18:19.262Z,94060.78
2023-02-19T07:20:46.090Z,94060.50
2023-02-19T07:23:12.894Z,94048.78
2023-02-19T07:25:39.892Z,94044.50
2023-02-19T07:28:07.438Z,94047.41
2023-02-19T07:30:34.682Z,94035.84
2023-02-19T07:33:01.659Z,94036.69
2023-02-19T07:35:28.538Z,94024.00
2023-02-19T07:37:55.436Z,94024.47
2023-02-19T07:40:22.196Z,94026.72
2023-02-19T07:42:48.968Z,94025.59
2023-02-19T07:45:16.896Z,94028.41
2023-02-19T07:47:43.652Z,94024.34
2023-02-19T07:50:12.393Z,94027.22
2023-02-19T07:52:40.570Z,94019.41
2023-02-19T07:55:07.397Z,94022.09
2023-02-19T07:57:34.159Z,94025.34
2023-02-19T08:00:01.084Z,94020.06
2023-02-19T08:02:46.385Z,94014.13
2023-02-19T08:05:13.916Z,94014.97
2023-02-19T08:07:40.801Z,94016.88
2023-02-19T08:10:26.667Z,94021.34
2023-02-19T08:13:19.077Z,94015.44
2023-02-19T08:15:50.688Z,94011.25
2023-02-19T08:18:19.416Z,94003.75
2023-02-19T08:20:46.171Z,94009.44
2023-02-19T08:23:13.537Z,94009.25
2023-02-19T08:25:40.949Z,94008.22
2023-02-19T08:28:10.323Z,94009.03
2023-02-19T08:30:39.186Z,94008.72
2023-02-19T08:33:07.356Z,93991.41
2023-02-19T08:35:37.163Z,93994.19
2023-02-19T08:38:05.590Z,93999.34
2023-02-19T08:40:33.229Z,93983.16
2023-02-19T08:43:08.444Z,93986.22
2023-02-19T08:45:37.483Z,93977.06
2023-02-19T08:48:04.565Z,93982.06
2023-02-19T08:50:31.439Z,93976.22
2023-02-19T08:53:02.532Z,93978.84
2023-02-19T08:55:29.763Z,93980.09
2023-02-19T08:57:56.787Z,93982.63
2023-02-19T09:00:23.813Z,93975.94
2023-02-19T09:02:50.806Z,93965.34
2023-02-19T09:05:17.794Z,93968.13
2023-02-19T09:07:44.446Z,93969.63
2023-02-19T09:10:12.593Z,93967.44
2023-02-19T09:12:40.297Z,93962.44
2023-02-19T09:15:07.452Z,93955.38
2023-02-19T09:17:34.144Z,93964.00
2023-02-19T09:20:00.901Z,93950.97
2023-02-19T09:22:27.769Z,93952.97
2023-02-19T09:24:54.525Z,93956.38
2023-02-19T09:27:21.287Z,93947.56
2023-02-19T09:29:48.132Z,93954.69
2023-02-19T09:32:14.912Z,93942.16
2023-02-19T09:34:41.831Z,93945.03
2023-02-19T09:37:08.810Z,93950.41
2023-02-19T09:39:35.592Z,93939.47
2023-02-19T09:42:15.434Z,93948.44
2023-02-19T09:44:44.845Z,93952.19
2023-02-19T09:47:20.085Z,93949.53
2023-02-19T09:49:52.269Z,93939.50
2023-02-19T09:52:24.143Z,93943.50
2023-02-19T09:54:51.907Z,93941.22
2023-02-19T09:57:19.964Z,93937.47
2023-02-19T09:59:50.603Z,93930.34
2023-02-19T10:02:20.156Z,93916.16
2023-02-19T10:04:51.417Z,93918.25
2023-02-19T10:07:20.882Z,93907.84
2023-02-19T10:10:18.904Z,93908.72
2023-02-19T10:12:51.375Z,93904.69
2023-02-19T10:15:22.955Z,93891.81
2023-02-19T10:17:49.674Z,93891.72
2023-02-19T10:20:18.866Z,93886.69
2023-02-19T10:22:45.911Z,93885.41
2023-02-19T10:25:14.616Z,93881.06
2023-02-19T10:27:41.356Z,93876.03
2023-02-19T10:30:16.996Z,93871.53
2023-02-19T10:32:58.954Z,93866.56
2023-02-19T10:35:25.951Z,93861.78
2023-02-19T10:37:53.105Z,93857.06
2023-02-19T10:40:22.866Z,93860.66
2023-02-19T10:42:59.069Z,93851.28
2023-02-19T10:45:39.906Z,93844.34
2023-02-19T10:48:07.792Z,93836.88
2023-02-19T10:50:46.978Z,93833.47
2023-02-19T10:53:24.514Z,93825.59
2023-02-19T10:56:27.556Z,93824.94
2023-02-19T10:58:55.227Z,93826.13
2023-02-19T11:01:25.677Z,93809.13
2023-02-19T11:04:17.376Z,93805.84
2023-02-19T11:06:45.187Z,93806.41
2023-02-19T11:09:23.913Z,93804.41
2023-02-19T11:11:52.495Z,93794.78
2023-02-19T11:14:21.640Z,93798.75
2023-02-19T11:16:52.137Z,93786.81
2023-02-19T11:19:43.972Z,93784.31
2023-02-19T11:22:38.903Z,93782.22
2023-02-19T11:25:14.701Z,93764.72
2023-02-19T11:28:16.832Z,93760.25
2023-02-19T11:30:47.633Z,93752.06
2023-02-19T11:33:17.441Z,93756.66
2023-02-19T11:35:45.011Z,93749.88
2023-02-19T11:38:14.110Z,93746.31
2023-02-19T11:40:44.959Z,93745.94
2023-02-19T11:43:20.902Z,93748.16
2023-02-19T11:46:23.184Z,93734.75
2023-02-19T11:48:54.968Z,93732.97
2023-02-19T11:51:39.643Z,93734.66
2023-02-19T11:54:09.376Z,93727.84
2023-02-19T11:56:41.075Z,93720.19
2023-02-19T11:59:17.373Z,93715.44
2023-02-19T12:02:02.603Z,93714.09
2023-02-19T12:04:44.670Z,93712.78
2023-02-19T12:07:17.652Z,93707.00
2023-02-19T12:10:03.076Z,93709.84
2023-02-19T12:12:54.605Z,93712.59
2023-02-19T12:15:24.354Z,93706.53
2023-02-19T12:18:15.112Z,93698.41
2023-02-19T12:21:23.179Z,93694.50
2023-02-19T12:24:27.822Z,93689.41
2023-02-19T12:27:51.831Z,93681.44
2023-02-19T12:30:40.139Z,93678.28
2023-02-19T12:33:34.407Z,93670.44
2023-02-19T12:36:33.598Z,93663.81
2023-02-19T12:39:38.142Z,93653.81
2023-02-19T12:42:43.351Z,93656.31
2023-02-19T12:45:32.392Z,93650.25
2023-02-19T12:48:12.829Z,93641.09
2023-02-19T12:50:39.846Z,93638.34
2023-02-19T12:53:34.199Z,93639.63
2023-02-19T12:56:05.727Z,93626.16
2023-02-19T12:58:38.113Z,93618.34
2023-02-19T13:01:07.447Z,93614.88
2023-02-19T13:04:12.537Z,93609.03
2023-02-19T13:06:50.575Z,93605.69
2023-02-19T13:09:51.145Z,93598.72
2023-02-19T13:12:29.705Z,93599.88
2023-02-19T13:15:15.097Z,93599.97
2023-02-19T13:17:46.218Z,93596.84
2023-02-19T13:20:27.472Z,93591.06
2023-02-19T13:23:19.235Z,93585.78
2023-02-19T13:25:46.023Z,93574.16
2023-02-19T13:28:21.518Z,93572.09
2023-02-19T13:30:57.698Z,93565.22
2023-02-19T13:33:32.648Z,93564.72
2023-02-19T13:36:31.726Z,93570.28
2023-02-19T13:38:59.659Z,93557.44
2023-02-19T13:41:30.284Z,93557.47
2023-02-19T13:44:00.960Z,93555.34
2023-02-19T13:46:38.396Z,93560.13
2023-02-19T13:49:24.057Z,93549.81
2023-02-19T13:51:52.170Z,93545.00
2023-02-19T13:54:40.246Z,93539.81
2023-02-19T13:57:26.661Z,93544.59
2023-02-19T13:59:54.857Z,93536.09
2023-02-19T14:02:21.546Z,93544.94
2023-02-19T14:04:57.147Z,93550.91
2023-02-19T14:07:26.936Z,93540.44
2023-02-19T14:09:54.323Z,93535.84
2023-02-19T14:12:22.926Z,93534.88
2023-02-19T14:14:51.625Z,93533.75
2023-02-19T14:17:43.745Z,93535.25
2023-02-19T14:20:11.729Z,93526.22
2023-02-19T14:22:47.652Z,93524.19
2023-02-19T14:25:43.344Z,93518.88
2023-02-19T14:28:10.121Z,93514.63
2023-02-19T14:30:49.069Z,93509.53
2023-02-19T14:33:17.911Z,93507.56
2023-02-19T14:35:46.938Z,93502.09
2023-02-19T14:38:30.580Z,93512.78
2023-02-19T14:40:57.562Z,93512.50
2023-02-19T14:43:25.838Z,93508.94
2023-02-19T14:46:00.523Z,93507.97
2023-02-19T14:48:48.253Z,93499.38
2023-02-19T14:51:40.864Z,93491.25
2023-02-19T14:54:27.823Z,93486.78
2023-02-19T14:56:54.888Z,93489.44
2023-02-19T14:59:24.611Z,93482.84
2023-02-19T15:02:12.885Z,93484.56
2023-02-19T15:04:40.325Z,93483.63
2023-02-19T15:07:09.616Z,93478.22
2023-02-19T15:09:40.282Z,93470.28
2023-02-19T15:12:07.635Z,93471.28
2023-02-19T15:14:34.993Z,93471.63
2023-02-19T15:17:04.257Z,93475.75
2023-02-19T15:19:35.055Z,93472.03
2023-02-19T15:22:02.738Z,93473.44
2023-02-19T15:24:30.117Z,93476.75
2023-02-19T15:26:56.942Z,93473.91
2023-02-19T15:29:25.918Z,93469.63
2023-02-19T15:32:00.923Z,93468.41
2023-02-19T15:34:30.622Z,93463.06
2023-02-19T15:37:08.384Z,93463.66
2023-02-19T15:39:36.078Z,93465.97
2023-02-19T15:42:05.161Z,93470.53
2023-02-19T15:44:44.614Z,93479.13
2023-02-19T15:47:25.484Z,93481.97
2023-02-19T15:49:54.014Z,93488.38
2023-02-19T15:52:27.774Z,93493.78
2023-02-19T15:55:20.774Z,93508.81
2023-02-19T15:58:00.710Z,93514.03
2023-02-19T16:00:50.625Z,93513.28
2023-02-19T16:03:22.400Z,93514.94
2023-02-19T16:06:02.792Z,93534.97
2023-02-19T16:08:31.189Z,93532.59
2023-02-19T16:11:00.402Z,93537.16
2023-02-19T16:13:29.124Z,93547.53
2023-02-19T16:16:15.224Z,93543.34
2023-02-19T16:18:47.351Z,93546.88
2023-02-19T16:21:16.334Z,93544.69
2023-02-19T16:23:44.170Z,93547.25
2023-02-19T16:26:11.335Z,93545.97
2023-02-19T16:28:39.764Z,93544.44
2023-02-19T16:31:13.769Z,93542.78
2023-02-19T16:33:48.733Z,93541.97
2023-02-19T16:36:41.626Z,93542.50
2023-02-19T16:39:08.493Z,93559.19
2023-02-19T16:41:41.365Z,93556.88
2023-02-19T16:44:32.542Z,93567.28
2023-02-19T16:47:15.981Z,93568.50
2023-02-19T16:49:44.170Z,93567.25
2023-02-19T16:52:15.494Z,93574.56
2023-02-19T16:54:43.305Z,93576.03
2023-02-19T16:57:10.032Z,93572.94
2023-02-19T16:59:37.004Z,93579.31
2023-02-19T17:02:05.672Z,93584.38
2023-02-19T17:04:32.462Z,93581.97
2023-02-19T17:06:59.278Z,93586.06
2023-02-19T17:09:26.052Z,93592.22
2023-02-19T17:11:52.816Z,93589.91
2023-02-19T17:14:19.649Z,93591.41
2023-02-19T17:16:46.996Z,93601.31
2023-02-19T17:19:16.890Z,93594.44
2023-02-19T17:21:45.246Z,93602.19
2023-02-19T17:24:12.309Z,93598.84
2023-02-19T17:26:39.410Z,93599.72
2023-02-19T17:29:08.576Z,93602.38
2023-02-19T17:31:35.393Z,93611.78
2023-02-19T17:34:02.198Z,93619.69
2023-02-19T17:36:31.287Z,93628.59
2023-02-19T17:38:59.513Z,93633.84
2023-02-19T17:41:26.743Z,93636.88
2023-02-19T17:43:53.652Z,93639.84
2023-02-19T17:46:25.681Z,93637.31
2023-02-19T17:48:53.177Z,93635.69
2023-02-19T17:51:20.670Z,93629.63
2023-02-19T17:53:47.493Z,93631.88
2023-02-19T17:56:19.379Z,93632.22
2023-02-19T17:58:46.162Z,93625.94
2023-02-19T18:01:13.846Z,93630.63
2023-02-19T18:03:40.892Z,93630.97
2023-02-19T18:06:07.847Z,93639.66
2023-02-19T18:08:34.648Z,93645.44
2023-02-19T18:11:01.566Z,93635.94
2023-02-19T18:13:28.314Z,93645.94
2023-02-19T18:15:55.059Z,93653.34
2023-02-19T18:18:23.309Z,93656.56
2023-02-19T18:20:50.131Z,93657.53
2023-02-19T18:23:16.935Z,93655.94
2023-02-19T18:25:43.695Z,93664.63
2023-02-19T18:28:10.930Z,93664.00
2023-02-19T18:30:37.740Z,93671.22
2023-02-19T18:33:05.486Z,93680.19
2023-02-19T18:35:34.086Z,93674.59
2023-02-19T18:38:01.735Z,93673.47
2023-02-19T18:40:28.979Z,93678.31
2023-02-19T18:42:55.908Z,93686.63
2023-02-19T18:45:22.672Z,93692.13
2023-02-19T18:47:50.018Z,93687.75
2023-02-19T18:50:18.180Z,93690.44
2023-02-19T18:52:45.003Z,93687.06
2023-02-19T18:55:14.220Z,93694.75
2023-02-19T18:57:41.113Z,93692.13
2023-02-19T19:00:08.396Z,93693.50
2023-02-19T19:02:48.332Z,93691.25
2023-02-19T19:05:23.587Z,93698.44
2023-02-19T19:07:52.702Z,93706.63
2023-02-19T19:10:20.049Z,93708.88
2023-02-19T19:12:47.071Z,93710.13
2023-02-19T19:15:17.020Z,93723.47
2023-02-19T19:17:44.892Z,93723.63
2023-02-19T19:20:12.063Z,93727.47
2023-02-19T19:22:38.846Z,93723.75
2023-02-19T19:25:05.930Z,93728.22
2023-02-19T19:27:32.686Z,93734.16
2023-02-19T19:29:59.439Z,93738.94
2023-02-19T19:32:26.270Z,93735.13
2023-02-19T19:34:53.174Z,93737.69
2023-02-19T19:37:19.917Z,93739.31
2023-02-19T19:39:46.812Z,93735.56
2023-02-19T19:42:14.063Z,93746.16
2023-02-19T19:44:40.860Z,93745.66
2023-02-19T19:47:07.685Z,93750.16
2023-02-19T19:49:34.451Z,93746.31
2023-02-19T19:52:01.333Z,93749.19
2023-02-19T19:54:28.779Z,93751.28
2023-02-19T19:56:55.775Z,93762.06
2023-02-19T19:59:23.194Z,93766.06
2023-02-19T20:01:52.625Z,93772.84
2023-02-19T20:04:21.342Z,93769.22
2023-02-19T20:06:48.733Z,93773.41
2023-02-19T20:09:16.615Z,93777.63
2023-02-19T20:11:48.025Z,93790.31
2023-02-19T20:14:15.896Z,93782.41
2023-02-19T20:16:44.697Z,93786.78
2023-02-19T20:19:11.621Z,93780.97
2023-02-19T20:21:38.645Z,93791.13
2023-02-19T20:24:05.612Z,93782.88
2023-02-19T20:26:32.694Z,93800.13
2023-02-19T20:28:59.630Z,93799.03
2023-02-19T20:31:26.764Z,93796.72
2023-02-19T20:33:53.687Z,93798.25
2023-02-19T20:36:20.808Z,93797.59
2023-02-19T20:38:49.594Z,93805.19
2023-02-19T20:41:16.417Z,93802.59
2023-02-19T20:43:43.304Z,93807.75
2023-02-19T20:46:13.977Z,93806.66
2023-02-19T20:48:44.894Z,93807.78
2023-02-19T20:51:11.829Z,93811.34
2023-02-19T20:53:44.236Z,93813.13
2023-02-19T20:56:12.090Z,93816.84
2023-02-19T20:58:43.106Z,93823.66
2023-02-19T21:01:11.837Z,93836.88
2023-02-19T21:03:38.717Z,93828.31
2023-02-19T21:06:05.722Z,93832.66
2023-02-19T21:08:32.871Z,93831.91
2023-02-19T21:10:59.918Z,93830.50
2023-02-19T21:13:30.283Z,93827.59
2023-02-19T21:15:57.545Z,93829.88
2023-02-19T21:18:24.737Z,93816.53
2023-02-19T21:20:51.684Z,93825.59
2023-02-19T21:23:18.384Z,93832.19
2023-02-19T21:25:45.167Z,93835.13
2023-02-19T21:28:12.532Z,93831.88
2023-02-19T21:30:39.601Z,93840.13
2023-02-19T21:33:06.487Z,93842.22
2023-02-19T21:35:33.410Z,93842.06
2023-02-19T21:38:00.256Z,93847.84
2023-02-19T21:40:29.004Z,93836.06
2023-02-19T21:42:56.000Z,93839.94
2023-02-19T21:45:22.867Z,93840.94
2023-02-19T21:47:52.214Z,93848.69
2023-02-19T21:50:22.590Z,93847.06
2023-02-19T21:52:49.506Z,93839.34
2023-02-19T21:55:16.499Z,93837.59
2023-02-19T21:57:43.478Z,93847.72
2023-02-19T22:00:10.771Z,93865.91
2023-02-19T22:02:37.649Z,93849.97
2023-02-19T22:05:04.703Z,93866.22
2023-02-19T22:07:31.704Z,93872.63
2023-02-19T22:09:58.558Z,93870.06
2023-02-19T22:12:25.385Z,93868.97
2023-02-19T22:14:52.911Z,93865.88
2023-02-19T22:17:20.715Z,93869.13
2023-02-19T22:19:47.496Z,93872.31
2023-02-19T22:22:14.448Z,93886.31
2023-02-19T22:24:41.224Z,93860.09
2023-02-19T22:27:08.310Z,93873.63
2023-02-19T22:29:35.173Z,93867.66
2023-02-19T22:32:02.204Z,93878.56
2023-02-19T22:34:29.017Z,93882.09
2023-02-19T22:36:55.967Z,93891.91
2023-02-19T22:39:26.868Z,93902.34
2023-02-19T22:41:54.015Z,93912.97
2023-02-19T22:44:20.977Z,93927.72
2023-02-19T22:46:55.310Z,93930.63
2023-02-19T22:49:22.745Z,93919.53
2023-02-19T22:51:56.861Z,93930.63
2023-02-19T22:54:26.885Z,93928.81
2023-02-19T22:56:54.485Z,93925.59
2023-02-19T22:59:21.994Z,93927.50
2023-02-19T23:01:49.850Z,93919.59
2023-02-19T23:04:16.995Z,93927.16
2023-02-19T23:06:47.406Z,93919.91
2023-02-19T23:09:21.595Z,93916.69
2023-02-19T23:11:48.490Z,93909.91
2023-02-19T23:14:21.566Z,93909.91
2023-02-19T23:16:48.592Z,93913.72
2023-02-19T23:19:15.998Z,93916.44
2023-02-19T23:21:44.679Z,93917.84
2023-02-19T23:24:12.825Z,93907.88
2023-02-19T23:26:43.455Z,93904.50
2023-02-19T23:29:10.401Z,93897.06
2023-02-19T23:31:37.344Z,93895.78
2023-02-19T23:34:04.359Z,93902.38
2023-02-19T23:36:31.153Z,93921.47
2023-02-19T23:38:57.870Z,93895.44
2023-02-19T23:41:24.596Z,93904.13
2023-02-19T23:43:52.410Z,93910.84
2023-02-19T23:46:19.473Z,93909.06
2023-02-19T23:48:46.466Z,93920.31
2023-02-19T23:51:13.370Z,93916.75
2023-02-19T23:53:40.174Z,93921.38
2023-02-19T23:56:07.254Z,93934.03
2023-02-19T23:58:34.083Z,93933.72
